sensor_id;sensor_type;location;lat;lon;timestamp;pressure;altitude;pressure_sealevel;temperature;humidity
20017;BME280;10169;42.664;23.610;2024-03-07T00:01:50;95143.19;;;7.39;100.00
20017;BME280;10169;42.664;23.610;2024-03-07T00:03:50;95141.69;;;7.43;100.00
20017;BME280;10169;42.664;23.610;2024-03-07T00:05:51;95130.97;;;7.38;100.00
20017;BME280;10169;42.664;23.610;2024-03-07T00:07:51;95133.56;;;7.26;100.00
20017;BME280;10169;42.664;23.610;2024-03-07T00:09:51;95137.34;;;7.19;100.00
20017;BME280;10169;42.664;23.610;2024-03-07T00:11:53;95140.47;;;7.27;100.00
20017;BME280;10169;42.664;23.610;2024-03-07T00:13:54;95139.88;;;7.25;100.00
20017;BME280;10169;42.664;23.610;2024-03-07T00:15:54;95143.56;;;7.24;100.00
20017;BME280;10169;42.664;23.610;2024-03-07T00:17:55;95137.81;;;7.27;100.00
20017;BME280;10169;42.664;23.610;2024-03-07T00:19:55;95136.44;;;7.25;100.00
20017;BME280;10169;42.664;23.610;2024-03-07T00:21:56;95132.97;;;7.24;100.00
20017;BME280;10169;42.664;23.610;2024-03-07T00:23:57;95137.91;;;7.21;100.00
20017;BME280;10169;42.664;23.610;2024-03-07T00:25:57;95133.28;;;7.16;100.00
20017;BME280;10169;42.664;23.610;2024-03-07T00:27:58;95135.34;;;7.14;100.00
20017;BME280;10169;42.664;23.610;2024-03-07T00:30:03;95142.63;;;7.19;100.00
20017;BME280;10169;42.664;23.610;2024-03-07T00:32:04;95133.44;;;7.21;100.00
20017;BME280;10169;42.664;23.610;2024-03-07T00:34:05;95140.72;;;7.08;100.00
20017;BME280;10169;42.664;23.610;2024-03-07T00:36:05;95137.63;;;7.11;100.00
20017;BME280;10169;42.664;23.610;2024-03-07T00:38:06;95130.94;;;7.08;100.00
20017;BME280;10169;42.664;23.610;2024-03-07T00:40:07;95137.53;;;7.17;100.00
20017;BME280;10169;42.664;23.610;2024-03-07T00:42:07;95129.25;;;7.14;100.00
20017;BME280;10169;42.664;23.610;2024-03-07T00:44:08;95136.44;;;7.07;100.00
20017;BME280;10169;42.664;23.610;2024-03-07T00:46:09;95132.88;;;7.01;100.00
20017;BME280;10169;42.664;23.610;2024-03-07T00:48:10;95141.31;;;7.10;100.00
20017;BME280;10169;42.664;23.610;2024-03-07T00:50:11;95138.00;;;7.14;100.00
20017;BME280;10169;42.664;23.610;2024-03-07T00:52:12;95129.78;;;7.04;100.00
20017;BME280;10169;42.664;23.610;2024-03-07T00:54:12;95138.75;;;7.03;100.00
20017;BME280;10169;42.664;23.610;2024-03-07T00:56:13;95136.88;;;7.04;100.00
20017;BME280;10169;42.664;23.610;2024-03-07T00:58:13;95138.50;;;7.05;100.00
20017;BME280;10169;42.664;23.610;2024-03-07T01:00:14;95133.88;;;7.00;100.00
20017;BME280;10169;42.664;23.610;2024-03-07T01:02:14;95130.94;;;7.08;100.00
20017;BME280;10169;42.664;23.610;2024-03-07T01:04:17;95131.09;;;7.13;100.00
20017;BME280;10169;42.664;23.610;2024-03-07T01:06:17;95126.38;;;7.15;100.00
20017;BME280;10169;42.664;23.610;2024-03-07T01:08:18;95116.28;;;7.12;100.00
20017;BME280;10169;42.664;23.610;2024-03-07T01:10:18;95117.38;;;7.05;100.00
20017;BME280;10169;42.664;23.610;2024-03-07T01:12:18;95109.97;;;6.95;100.00
20017;BME280;10169;42.664;23.610;2024-03-07T01:14:22;95114.22;;;6.96;100.00
20017;BME280;10169;42.664;23.610;2024-03-07T01:16:23;95120.44;;;7.02;100.00
20017;BME280;10169;42.664;23.610;2024-03-07T01:18:23;95124.22;;;7.12;100.00
20017;BME280;10169;42.664;23.610;2024-03-07T01:20:23;95116.94;;;7.08;100.00
20017;BME280;10169;42.664;23.610;2024-03-07T01:22:25;95117.53;;;7.10;100.00
20017;BME280;10169;42.664;23.610;2024-03-07T01:24:25;95123.41;;;6.94;100.00
20017;BME280;10169;42.664;23.610;2024-03-07T01:26:27;95115.63;;;6.99;100.00
20017;BME280;10169;42.664;23.610;2024-03-07T01:28:27;95122.16;;;6.96;100.00
20017;BME280;10169;42.664;23.610;2024-03-07T01:30:30;95129.94;;;6.91;100.00
20017;BME280;10169;42.664;23.610;2024-03-07T01:32:30;95125.88;;;6.89;100.00
20017;BME280;10169;42.664;23.610;2024-03-07T01:34:31;95122.59;;;6.93;100.00
20017;BME280;10169;42.664;23.610;2024-03-07T01:36:31;95121.00;;;6.92;100.00
20017;BME280;10169;42.664;23.610;2024-03-07T01:38:32;95117.22;;;7.00;100.00
20017;BME280;10169;42.664;23.610;2024-03-07T01:40:32;95111.94;;;7.00;100.00
20017;BME280;10169;42.664;23.610;2024-03-07T01:42:32;95120.44;;;7.02;100.00
20017;BME280;10169;42.664;23.610;2024-03-07T01:44:32;95118.94;;;6.94;100.00
20017;BME280;10169;42.664;23.610;2024-03-07T01:46:33;95129.03;;;6.97;100.00
20017;BME280;10169;42.664;23.610;2024-03-07T01:48:33;95119.66;;;7.01;100.00
20017;BME280;10169;42.664;23.610;2024-03-07T01:50:34;95116.56;;;6.86;100.00
20017;BME280;10169;42.664;23.610;2024-03-07T01:52:34;95122.97;;;6.97;100.00
20017;BME280;10169;42.664;23.610;2024-03-07T01:54:34;95122.97;;;6.97;100.00
20017;BME280;10169;42.664;23.610;2024-03-07T01:56:35;95124.22;;;6.94;100.00
20017;BME280;10169;42.664;23.610;2024-03-07T01:58:36;95115.63;;;6.99;100.00
20017;BME280;10169;42.664;23.610;2024-03-07T02:00:36;95116.47;;;7.11;100.00
20017;BME280;10169;42.664;23.610;2024-03-07T02:02:37;95116.78;;;7.03;100.00
20017;BME280;10169;42.664;23.610;2024-03-07T02:04:37;95114.16;;;7.03;100.00
20017;BME280;10169;42.664;23.610;2024-03-07T02:06:38;95109.78;;;7.08;100.00
20017;BME280;10169;42.664;23.610;2024-03-07T02:08:38;95110.41;;;7.10;100.00
20017;BME280;10169;42.664;23.610;2024-03-07T02:10:38;95110.47;;;7.04;100.00
20017;BME280;10169;42.664;23.610;2024-03-07T02:12:39;95119.44;;;7.03;100.00
20017;BME280;10169;42.664;23.610;2024-03-07T02:14:39;95109.09;;;7.01;100.00
20017;BME280;10169;42.664;23.610;2024-03-07T02:16:39;95110.94;;;7.01;100.00
20017;BME280;10169;42.664;23.610;2024-03-07T02:18:40;95114.09;;;6.91;100.00
20017;BME280;10169;42.664;23.610;2024-03-07T02:20:46;95116.81;;;6.85;100.00
20017;BME280;10169;42.664;23.610;2024-03-07T02:22:46;95118.50;;;6.79;100.00
20017;BME280;10169;42.664;23.610;2024-03-07T02:24:47;95117.97;;;6.71;100.00
20017;BME280;10169;42.664;23.610;2024-03-07T02:26:47;95123.72;;;6.68;100.00
20017;BME280;10169;42.664;23.610;2024-03-07T02:28:47;95126.94;;;6.70;100.00
20017;BME280;10169;42.664;23.610;2024-03-07T02:30:48;95136.19;;;6.79;100.00
20017;BME280;10169;42.664;23.610;2024-03-07T02:32:48;95137.78;;;6.80;100.00
20017;BME280;10169;42.664;23.610;2024-03-07T02:34:54;95137.25;;;6.71;100.00
20017;BME280;10169;42.664;23.610;2024-03-07T02:36:55;95141.66;;;6.77;100.00
20017;BME280;10169;42.664;23.610;2024-03-07T02:38:55;95154.44;;;6.80;100.00
20017;BME280;10169;42.664;23.610;2024-03-07T02:40:55;95156.19;;;6.68;100.00
20017;BME280;10169;42.664;23.610;2024-03-07T02:42:58;95163.56;;;6.59;100.00
20017;BME280;10169;42.664;23.610;2024-03-07T02:44:58;95162.84;;;6.52;100.00
20017;BME280;10169;42.664;23.610;2024-03-07T02:46:59;95168.19;;;6.46;100.00
20017;BME280;10169;42.664;23.610;2024-03-07T02:49:04;95167.94;;;6.29;100.00
20017;BME280;10169;42.664;23.610;2024-03-07T02:51:04;95162.84;;;6.28;100.00
20017;BME280;10169;42.664;23.610;2024-03-07T02:53:08;95160.22;;;6.28;100.00
20017;BME280;10169;42.664;23.610;2024-03-07T02:55:08;95163.59;;;6.35;100.00
20017;BME280;10169;42.664;23.610;2024-03-07T02:57:10;95169.16;;;6.27;100.00
20017;BME280;10169;42.664;23.610;2024-03-07T02:59:11;95174.97;;;6.35;100.00
20017;BME280;10169;42.664;23.610;2024-03-07T03:01:12;95176.22;;;6.33;100.00
20017;BME280;10169;42.664;23.610;2024-03-07T03:03:12;95175.19;;;6.09;100.00
20017;BME280;10169;42.664;23.610;2024-03-07T03:05:13;95167.31;;;5.71;100.00
20017;BME280;10169;42.664;23.610;2024-03-07T03:07:14;95168.41;;;5.57;100.00
20017;BME280;10169;42.664;23.610;2024-03-07T03:09:14;95157.78;;;5.39;100.00
20017;BME280;10169;42.664;23.610;2024-03-07T03:11:17;95160.81;;;5.36;100.00
20017;BME280;10169;42.664;23.610;2024-03-07T03:13:17;95153.31;;;5.40;100.00
20017;BME280;10169;42.664;23.610;2024-03-07T03:15:18;95151.53;;;5.27;100.00
20017;BME280;10169;42.664;23.610;2024-03-07T03:17:20;95157.47;;;5.16;100.00
20017;BME280;10169;42.664;23.610;2024-03-07T03:19:21;95154.03;;;5.09;100.00
20017;BME280;10169;42.664;23.610;2024-03-07T03:21:23;95153.69;;;4.99;100.00
20017;BME280;10169;42.664;23.610;2024-03-07T03:23:23;95146.78;;;4.98;100.00
20017;BME280;10169;42.664;23.610;2024-03-07T03:25:23;95150.47;;;4.97;100.00
20017;BME280;10169;42.664;23.610;2024-03-07T03:27:24;95147.84;;;4.90;100.00
20017;BME280;10169;42.664;23.610;2024-03-07T03:29:24;95154.16;;;4.83;100.00
20017;BME280;10169;42.664;23.610;2024-03-07T03:31:24;95150.94;;;4.74;100.00
20017;BME280;10169;42.664;23.610;2024-03-07T03:33:25;95150.75;;;4.69;100.00
20017;BME280;10169;42.664;23.610;2024-03-07T03:35:25;95155.38;;;4.74;100.00
20017;BME280;10169;42.664;23.610;2024-03-07T03:37:25;95148.53;;;4.73;100.00
20017;BME280;10169;42.664;23.610;2024-03-07T03:39:26;95143.06;;;4.68;100.00
20017;BME280;10169;42.664;23.610;2024-03-07T03:41:27;95147.50;;;4.74;100.00
20017;BME280;10169;42.664;23.610;2024-03-07T03:43:27;95145.28;;;4.64;100.00
20017;BME280;10169;42.664;23.610;2024-03-07T03:45:27;95150.53;;;4.64;100.00
20017;BME280;10169;42.664;23.610;2024-03-07T03:47:28;95150.38;;;4.59;100.00
20017;BME280;10169;42.664;23.610;2024-03-07T03:49:28;95153.41;;;4.56;100.00
20017;BME280;10169;42.664;23.610;2024-03-07T03:51:31;95149.34;;;4.60;100.00
20017;BME280;10169;42.664;23.610;2024-03-07T03:53:31;95160.31;;;4.57;100.00
20017;BME280;10169;42.664;23.610;2024-03-07T03:55:31;95151.00;;;4.55;100.00
20017;BME280;10169;42.664;23.610;2024-03-07T03:57:32;95156.25;;;4.55;100.00
20017;BME280;10169;42.664;23.610;2024-03-07T03:59:33;95162.50;;;4.60;100.00
20017;BME280;10169;42.664;23.610;2024-03-07T04:01:33;95156.03;;;4.63;100.00
20017;BME280;10169;42.664;23.610;2024-03-07T04:03:33;95154.22;;;4.57;100.00
20017;BME280;10169;42.664;23.610;2024-03-07T04:05:34;95169.22;;;4.56;100.00
20017;BME280;10169;42.664;23.610;2024-03-07T04:07:34;95188.66;;;4.62;100.00
20017;BME280;10169;42.664;23.610;2024-03-07T04:09:35;95187.00;;;4.61;100.00
20017;BME280;10169;42.664;23.610;2024-03-07T04:11:36;95179.50;;;4.58;100.00
20017;BME280;10169;42.664;23.610;2024-03-07T04:13:36;95160.94;;;4.53;100.00
20017;BME280;10169;42.664;23.610;2024-03-07T04:15:37;95140.88;;;4.45;100.00
20017;BME280;10169;42.664;23.610;2024-03-07T04:17:37;95136.22;;;4.47;100.00
20017;BME280;10169;42.664;23.610;2024-03-07T04:19:41;95127.34;;;4.48;100.00
20017;BME280;10169;42.664;23.610;2024-03-07T04:21:42;95129.19;;;4.34;100.00
20017;BME280;10169;42.664;23.610;2024-03-07T04:23:42;95123.72;;;4.29;100.00
20017;BME280;10169;42.664;23.610;2024-03-07T04:25:42;95134.63;;;4.33;100.00
20017;BME280;10169;42.664;23.610;2024-03-07T04:27:42;95144.75;;;4.29;100.00
20017;BME280;10169;42.664;23.610;2024-03-07T04:29:43;95151.00;;;4.35;100.00
20017;BME280;10169;42.664;23.610;2024-03-07T04:31:43;95145.75;;;4.35;100.00
20017;BME280;10169;42.664;23.610;2024-03-07T04:33:44;95147.38;;;4.43;100.00
20017;BME280;10169;42.664;23.610;2024-03-07T04:35:44;95141.50;;;4.47;100.00
20017;BME280;10169;42.664;23.610;2024-03-07T04:37:44;95146.53;;;4.49;100.00
20017;BME280;10169;42.664;23.610;2024-03-07T04:39:45;95142.94;;;4.36;100.00
20017;BME280;10169;42.664;23.610;2024-03-07T04:41:45;95146.56;;;4.35;100.00
20017;BME280;10169;42.664;23.610;2024-03-07T04:43:47;95156.88;;;4.30;100.00
20017;BME280;10169;42.664;23.610;2024-03-07T04:45:47;95151.84;;;4.29;100.00
20017;BME280;10169;42.664;23.610;2024-03-07T04:47:48;95143.13;;;4.28;100.00
20017;BME280;10169;42.664;23.610;2024-03-07T04:49:49;95134.84;;;4.31;100.00
20017;BME280;10169;42.664;23.610;2024-03-07T04:51:53;95129.19;;;4.28;100.00
20017;BME280;10169;42.664;23.610;2024-03-07T04:53:53;95138.09;;;4.27;100.00
20017;BME280;10169;42.664;23.610;2024-03-07T04:55:53;95137.88;;;4.22;100.00
20017;BME280;10169;42.664;23.610;2024-03-07T04:57:54;95136.88;;;4.23;100.00
20017;BME280;10169;42.664;23.610;2024-03-07T04:59:54;95144.78;;;4.23;100.00
20017;BME280;10169;42.664;23.610;2024-03-07T05:01:55;95145.78;;;4.22;100.00
20017;BME280;10169;42.664;23.610;2024-03-07T05:03:55;95145.56;;;4.30;100.00
20017;BME280;10169;42.664;23.610;2024-03-07T05:05:55;95153.47;;;4.30;100.00
20017;BME280;10169;42.664;23.610;2024-03-07T05:07:57;95156.09;;;4.30;100.00
20017;BME280;10169;42.664;23.610;2024-03-07T05:09:57;95161.16;;;4.31;100.00
20017;BME280;10169;42.664;23.610;2024-03-07T05:11:57;95166.41;;;4.38;100.00
20017;BME280;10169;42.664;23.610;2024-03-07T05:13:58;95172.88;;;4.35;100.00
20017;BME280;10169;42.664;23.610;2024-03-07T05:15:58;95173.09;;;4.34;100.00
20017;BME280;10169;42.664;23.610;2024-03-07T05:17:59;95166.63;;;4.30;100.00
20017;BME280;10169;42.664;23.610;2024-03-07T05:20:00;95168.03;;;4.39;100.00
20017;BME280;10169;42.664;23.610;2024-03-07T05:22:00;95161.31;;;4.50;100.00
20017;BME280;10169;42.664;23.610;2024-03-07T05:24:01;95174.06;;;4.39;100.00
20017;BME280;10169;42.664;23.610;2024-03-07T05:26:03;95173.28;;;4.46;100.00
20017;BME280;10169;42.664;23.610;2024-03-07T05:28:03;95185.63;;;4.38;100.00
20017;BME280;10169;42.664;23.610;2024-03-07T05:30:04;95195.75;;;4.48;100.00
20017;BME280;10169;42.664;23.610;2024-03-07T05:32:22;95195.53;;;4.56;100.00
20017;BME280;10169;42.664;23.610;2024-03-07T05:34:22;95200.34;;;4.72;100.00
20017;BME280;10169;42.664;23.610;2024-03-07T05:36:23;95206.84;;;4.70;100.00
20017;BME280;10169;42.664;23.610;2024-03-07T05:38:24;95197.53;;;4.61;100.00
20017;BME280;10169;42.664;23.610;2024-03-07T05:40:24;95191.06;;;4.57;100.00
20017;BME280;10169;42.664;23.610;2024-03-07T05:42:24;95183.16;;;4.70;100.00
20017;BME280;10169;42.664;23.610;2024-03-07T05:44:26;95183.97;;;4.70;100.00
20017;BME280;10169;42.664;23.610;2024-03-07T05:46:26;95185.78;;;4.70;100.00
20017;BME280;10169;42.664;23.610;2024-03-07T05:48:26;95180.72;;;4.75;100.00
20017;BME280;10169;42.664;23.610;2024-03-07T05:50:26;95175.00;;;4.78;100.00
20017;BME280;10169;42.664;23.610;2024-03-07T05:52:27;95168.75;;;4.79;100.00
20017;BME280;10169;42.664;23.610;2024-03-07T05:54:27;95164.50;;;4.71;100.00
20017;BME280;10169;42.664;23.610;2024-03-07T05:56:29;95173.56;;;4.95;100.00
20017;BME280;10169;42.664;23.610;2024-03-07T05:58:29;95172.38;;;4.91;100.00
20017;BME280;10169;42.664;23.610;2024-03-07T06:00:30;95170.75;;;4.90;100.00
20017;BME280;10169;42.664;23.610;2024-03-07T06:02:33;95167.28;;;4.89;100.00
20017;BME280;10169;42.664;23.610;2024-03-07T06:04:33;95159.09;;;5.17;100.00
20017;BME280;10169;42.664;23.610;2024-03-07T06:06:34;95168.19;;;5.21;100.00
20017;BME280;10169;42.664;23.610;2024-03-07T06:08:35;95169.41;;;5.19;100.00
20017;BME280;10169;42.664;23.610;2024-03-07T06:10:35;95168.34;;;5.33;100.00
20017;BME280;10169;42.664;23.610;2024-03-07T06:12:36;95168.16;;;5.28;100.00
20017;BME280;10169;42.664;23.610;2024-03-07T06:14:37;95170.47;;;5.11;100.00
20017;BME280;10169;42.664;23.610;2024-03-07T06:16:37;95177.91;;;5.21;100.00
20017;BME280;10169;42.664;23.610;2024-03-07T06:18:38;95168.97;;;5.28;100.00
20017;BME280;10169;42.664;23.610;2024-03-07T06:20:39;95173.94;;;5.43;100.00
20017;BME280;10169;42.664;23.610;2024-03-07T06:22:41;95166.19;;;5.54;100.00
20017;BME280;10169;42.664;23.610;2024-03-07T06:24:44;95166.00;;;5.56;100.00
20017;BME280;10169;42.664;23.610;2024-03-07T06:26:44;95157.88;;;5.57;100.00
20017;BME280;10169;42.664;23.610;2024-03-07T06:28:47;95166.94;;;5.68;100.00
20017;BME280;10169;42.664;23.610;2024-03-07T06:30:48;95176.34;;;5.89;100.00
20017;BME280;10169;42.664;23.610;2024-03-07T06:32:48;95169.69;;;6.11;100.00
20017;BME280;10169;42.664;23.610;2024-03-07T06:34:49;95168.63;;;6.18;100.00
20017;BME280;10169;42.664;23.610;2024-03-07T06:36:49;95166.63;;;6.14;100.00
20017;BME280;10169;42.664;23.610;2024-03-07T06:38:50;95170.03;;;6.21;100.00
20017;BME280;10169;42.664;23.610;2024-03-07T06:40:50;95160.91;;;6.17;100.00
20017;BME280;10169;42.664;23.610;2024-03-07T06:42:50;95167.19;;;6.22;100.00
20017;BME280;10169;42.664;23.610;2024-03-07T06:44:51;95168.41;;;6.20;100.00
20017;BME280;10169;42.664;23.610;2024-03-07T06:46:52;95175.31;;;6.45;100.00
20017;BME280;10169;42.664;23.610;2024-03-07T06:48:52;95169.69;;;6.35;100.00
20017;BME280;10169;42.664;23.610;2024-03-07T06:50:52;95172.69;;;6.39;100.00
20017;BME280;10169;42.664;23.610;2024-03-07T06:52:53;95173.19;;;6.54;100.00
20017;BME280;10169;42.664;23.610;2024-03-07T06:54:53;95173.94;;;6.61;100.00
20017;BME280;10169;42.664;23.610;2024-03-07T06:56:53;95174.72;;;6.62;100.00
20017;BME280;10169;42.664;23.610;2024-03-07T06:58:53;95181.25;;;6.59;100.00
20017;BME280;10169;42.664;23.610;2024-03-07T07:00:54;95188.59;;;6.57;100.00
20017;BME280;10169;42.664;23.610;2024-03-07T07:02:54;95197.59;;;6.25;100.00
20017;BME280;10169;42.664;23.610;2024-03-07T07:04:54;95199.00;;;6.03;100.00
20017;BME280;10169;42.664;23.610;2024-03-07T07:06:55;95196.28;;;5.84;100.00
20017;BME280;10169;42.664;23.610;2024-03-07T07:08:55;95198.28;;;5.82;100.00
20017;BME280;10169;42.664;23.610;2024-03-07T07:10:55;95196.66;;;5.81;100.00
20017;BME280;10169;42.664;23.610;2024-03-07T07:12:56;95204.56;;;5.88;100.00
20017;BME280;10169;42.664;23.610;2024-03-07T07:14:56;95204.56;;;5.81;100.00
20017;BME280;10169;42.664;23.610;2024-03-07T07:16:56;95197.47;;;5.82;100.00
20017;BME280;10169;42.664;23.610;2024-03-07T07:18:59;95199.34;;;5.75;100.00
20017;BME280;10169;42.664;23.610;2024-03-07T07:20:59;95208.88;;;5.76;100.00
20017;BME280;10169;42.664;23.610;2024-03-07T07:23:02;95202.38;;;5.72;100.00
20017;BME280;10169;42.664;23.610;2024-03-07T07:25:03;95199.56;;;5.73;100.00
20017;BME280;10169;42.664;23.610;2024-03-07T07:27:04;95209.03;;;5.81;100.00
20017;BME280;10169;42.664;23.610;2024-03-07T07:29:05;95204.72;;;5.93;100.00
20017;BME280;10169;42.664;23.610;2024-03-07T07:31:05;95206.38;;;5.81;100.00
20017;BME280;10169;42.664;23.610;2024-03-07T07:33:05;95207.16;;;5.95;100.00
20017;BME280;10169;42.664;23.610;2024-03-07T07:35:06;95195.75;;;6.01;100.00
20017;BME280;10169;42.664;23.610;2024-03-07T07:37:13;95191.88;;;6.03;100.00
20017;BME280;10169;42.664;23.610;2024-03-07T07:39:13;95184.84;;;5.91;100.00
20017;BME280;10169;42.664;23.610;2024-03-07T07:41:16;95175.25;;;6.03;100.00
20017;BME280;10169;42.664;23.610;2024-03-07T07:43:17;95167.38;;;5.96;100.00
20017;BME280;10169;42.664;23.610;2024-03-07T07:45:18;95164.94;;;5.95;100.00
20017;BME280;10169;42.664;23.610;2024-03-07T07:47:18;95169.38;;;6.01;100.00
20017;BME280;10169;42.664;23.610;2024-03-07T07:49:19;95167.13;;;6.04;100.00
20017;BME280;10169;42.664;23.610;2024-03-07T07:51:19;95175.03;;;6.04;100.00
20017;BME280;10169;42.664;23.610;2024-03-07T07:53:20;95186.47;;;6.23;100.00
20017;BME280;10169;42.664;23.610;2024-03-07T07:55:21;95188.75;;;6.13;100.00
20017;BME280;10169;42.664;23.610;2024-03-07T07:57:21;95187.75;;;6.14;100.00
20017;BME280;10169;42.664;23.610;2024-03-07T07:59:22;95186.28;;;6.18;100.00
20017;BME280;10169;42.664;23.610;2024-03-07T08:01:22;95187.53;;;6.15;100.00
20017;BME280;10169;42.664;23.610;2024-03-07T08:03:22;95189.75;;;6.18;100.00
20017;BME280;10169;42.664;23.610;2024-03-07T08:05:32;95182.66;;;6.12;100.00
20017;BME280;10169;42.664;23.610;2024-03-07T08:07:33;95179.94;;;6.25;100.00
20017;BME280;10169;42.664;23.610;2024-03-07T08:09:33;95181.00;;;6.18;100.00
20017;BME280;10169;42.664;23.610;2024-03-07T08:11:33;95182.13;;;6.28;100.00
20017;BME280;10169;42.664;23.610;2024-03-07T08:13:34;95174.81;;;6.30;100.00
20017;BME280;10169;42.664;23.610;2024-03-07T08:15:35;95178.53;;;6.23;100.00
20017;BME280;10169;42.664;23.610;2024-03-07T08:17:35;95169.66;;;6.17;100.00
20017;BME280;10169;42.664;23.610;2024-03-07T08:19:36;95167.13;;;6.29;100.00
20017;BME280;10169;42.664;23.610;2024-03-07T08:21:36;95157.03;;;6.44;100.00
20017;BME280;10169;42.664;23.610;2024-03-07T08:23:37;95155.19;;;6.44;100.00
20017;BME280;10169;42.664;23.610;2024-03-07T08:25:38;95162.63;;;6.54;100.00
20017;BME280;10169;42.664;23.610;2024-03-07T08:27:45;95158.09;;;6.61;100.00
20017;BME280;10169;42.664;23.610;2024-03-07T08:29:46;95158.13;;;6.79;100.00
20017;BME280;10169;42.664;23.610;2024-03-07T08:31:46;95152.94;;;6.66;100.00
20017;BME280;10169;42.664;23.610;2024-03-07T08:33:46;95157.72;;;6.76;100.00
20017;BME280;10169;42.664;23.610;2024-03-07T08:35:47;95172.28;;;7.03;100.00
20017;BME280;10169;42.664;23.610;2024-03-07T08:37:48;95169.56;;;7.09;100.00
20017;BME280;10169;42.664;23.610;2024-03-07T08:39:54;95185.75;;;7.13;100.00
20017;BME280;10169;42.664;23.610;2024-03-07T08:41:55;95191.34;;;7.23;100.00
20017;BME280;10169;42.664;23.610;2024-03-07T08:43:55;95190.59;;;7.34;100.00
20017;BME280;10169;42.664;23.610;2024-03-07T08:45:56;95199.63;;;7.45;100.00
20017;BME280;10169;42.664;23.610;2024-03-07T08:47:56;95206.63;;;7.39;100.00
20017;BME280;10169;42.664;23.610;2024-03-07T08:49:57;95200.66;;;7.44;100.00
20017;BME280;10169;42.664;23.610;2024-03-07T08:51:58;95206.25;;;7.36;100.00
20017;BME280;10169;42.664;23.610;2024-03-07T08:53:58;95207.28;;;7.16;100.00
20017;BME280;10169;42.664;23.610;2024-03-07T08:55:59;95213.66;;;7.27;100.00
20017;BME280;10169;42.664;23.610;2024-03-07T08:58:01;95215.41;;;7.51;100.00
20017;BME280;10169;42.664;23.610;2024-03-07T09:00:02;95213.13;;;7.55;100.00
20017;BME280;10169;42.664;23.610;2024-03-07T09:02:08;95208.00;;;7.60;100.00
20017;BME280;10169;42.664;23.610;2024-03-07T09:04:08;95208.34;;;7.63;100.00
20017;BME280;10169;42.664;23.610;2024-03-07T09:06:09;95200.31;;;7.70;100.00
20017;BME280;10169;42.664;23.610;2024-03-07T09:08:13;95206.50;;;7.64;100.00
20017;BME280;10169;42.664;23.610;2024-03-07T09:10:13;95204.00;;;7.98;100.00
20017;BME280;10169;42.664;23.610;2024-03-07T09:12:20;95203.47;;;8.49;100.00
20017;BME280;10169;42.664;23.610;2024-03-07T09:14:20;95197.69;;;8.52;100.00
20017;BME280;10169;42.664;23.610;2024-03-07T09:16:21;95195.25;;;8.39;100.00
20017;BME280;10169;42.664;23.610;2024-03-07T09:18:21;95197.94;;;8.62;100.00
20017;BME280;10169;42.664;23.610;2024-03-07T09:20:24;95195.03;;;8.52;100.00
20017;BME280;10169;42.664;23.610;2024-03-07T09:22:24;95196.78;;;8.58;100.00
20017;BME280;10169;42.664;23.610;2024-03-07T09:24:25;95195.97;;;8.58;100.00
20017;BME280;10169;42.664;23.610;2024-03-07T09:26:25;95198.28;;;8.66;100.00
20017;BME280;10169;42.664;23.610;2024-03-07T09:28:25;95201.03;;;8.71;100.00
20017;BME280;10169;42.664;23.610;2024-03-07T09:30:26;95198.41;;;8.71;100.00
20017;BME280;10169;42.664;23.610;2024-03-07T09:32:28;95192.06;;;8.60;100.00
20017;BME280;10169;42.664;23.610;2024-03-07T09:34:33;95194.91;;;8.47;100.00
20017;BME280;10169;42.664;23.610;2024-03-07T09:36:34;95200.09;;;8.42;100.00
20017;BME280;10169;42.664;23.610;2024-03-07T09:38:35;95209.59;;;8.20;100.00
20017;BME280;10169;42.664;23.610;2024-03-07T09:40:35;95205.41;;;8.42;100.00
20017;BME280;10169;42.664;23.610;2024-03-07T09:42:36;95206.63;;;8.28;100.00
20017;BME280;10169;42.664;23.610;2024-03-07T09:44:41;95207.63;;;8.16;100.00
20017;BME280;10169;42.664;23.610;2024-03-07T09:46:42;95215.44;;;8.11;100.00
20017;BME280;10169;42.664;23.610;2024-03-07T09:48:45;95204.03;;;8.10;100.00
20017;BME280;10169;42.664;23.610;2024-03-07T09:50:46;95204.84;;;8.11;100.00
20017;BME280;10169;42.664;23.610;2024-03-07T09:52:51;95206.13;;;8.20;100.00
20017;BME280;10169;42.664;23.610;2024-03-07T09:54:52;95208.78;;;8.20;100.00
20017;BME280;10169;42.664;23.610;2024-03-07T09:56:53;95211.06;;;8.16;100.00
20017;BME280;10169;42.664;23.610;2024-03-07T09:58:56;95211.66;;;8.18;100.00
20017;BME280;10169;42.664;23.610;2024-03-07T10:00:57;95211.56;;;8.25;100.00
20017;BME280;10169;42.664;23.610;2024-03-07T10:02:58;95204.13;;;8.33;100.00
20017;BME280;10169;42.664;23.610;2024-03-07T10:05:00;95206.25;;;8.25;100.00
20017;BME280;10169;42.664;23.610;2024-03-07T10:07:01;95207.16;;;8.19;100.00
20017;BME280;10169;42.664;23.610;2024-03-07T10:09:02;95206.19;;;8.01;100.00
20017;BME280;10169;42.664;23.610;2024-03-07T10:11:03;95203.66;;;7.95;100.00
20017;BME280;10169;42.664;23.610;2024-03-07T10:13:04;95204.66;;;7.94;100.00
20017;BME280;10169;42.664;23.610;2024-03-07T10:15:05;95209.16;;;7.93;100.00
20017;BME280;10169;42.664;23.610;2024-03-07T10:17:06;95197.00;;;8.04;100.00
20017;BME280;10169;42.664;23.610;2024-03-07T10:19:06;95201.63;;;8.09;100.00
20017;BME280;10169;42.664;23.610;2024-03-07T10:21:08;95212.91;;;8.16;100.00
20017;BME280;10169;42.664;23.610;2024-03-07T10:23:08;95195.47;;;7.96;100.00
20017;BME280;10169;42.664;23.610;2024-03-07T10:25:09;95203.31;;;8.03;100.00
20017;BME280;10169;42.664;23.610;2024-03-07T10:27:10;95209.31;;;8.10;100.00
20017;BME280;10169;42.664;23.610;2024-03-07T10:29:10;95205.06;;;8.21;100.00
20017;BME280;10169;42.664;23.610;2024-03-07T10:31:11;95202.34;;;8.27;100.00
20017;BME280;10169;42.664;23.610;2024-03-07T10:33:11;95201.03;;;8.07;100.00